Main page
METAR-TAF:

METAR-TAF

Airports :

Warsaw Chopin Airport

Warsaw, Poland

latitude: 52-10N, longitude: 020-58E, elevation: 106 m

Current weather observation

The report was made 6 minutes ago, at 03:30 UTC
Wind 2 kt from variable directions
Temperature 14°C
Humidity 100%
Pressure 1022 hPa
Visibility 10 km or more
Shallow fog

METAR: EPWA 270330Z VRB02KT 9999 MIFG NSC 14/14 Q1022 TEMPO 4000 BR

Time: 05:36 (03:36 UTC)

Forecast

The report was made 1 hour and 6 minutes ago, at 02:30 UTC
Forecast valid from 27 at 03 UTC to 28 at 03 UTC
Wind 4 kt from variable directions
Visibility 10 km or more
no clouds below 1500 m and no cumulonimbus
Probability 40%
from 27 at 03 UTC to 27 at 05 UTC
Visibility: 3000 m
mist
Becoming
from 27 at 06 UTC to 27 at 08 UTC
Wind 10 kt from the East/Southeast

TAF: EPWA 270230Z 2703/2803 VRB04KT CAVOK PROB40 2703/2705 3000 BR BECMG 2706/2708 12010KT

Weather observations and forecasts of more than 4000 airports (METAR and TAF reports).

The available stations are represented by yellow and red dots on the map.

Hover mouse over dot to see the name of the station.

Then click to see weather observations and forecasts.

To change the map : click on the green buttons with a black cross to zoom in, on the green button with a dash to zoom out, or on the green arrows for adjacent maps.


METAR-TAF: